sensor_id;sensor_type;location;lat;lon;timestamp;temperature;humidity
25628;DHT22;40915;50.826;4.356;2023-02-18T00:01:11;11.00;99.90
25628;DHT22;40915;50.826;4.356;2023-02-18T00:03:38;11.10;99.90
25628;DHT22;40915;50.826;4.356;2023-02-18T00:06:25;11.10;99.90
25628;DHT22;40915;50.826;4.356;2023-02-18T00:08:51;11.10;99.90
25628;DHT22;40915;50.826;4.356;2023-02-18T00:11:19;11.00;99.90
25628;DHT22;40915;50.826;4.356;2023-02-18T00:13:53;11.00;99.90
25628;DHT22;40915;50.826;4.356;2023-02-18T00:16:19;11.00;99.90
25628;DHT22;40915;50.826;4.356;2023-02-18T00:18:45;11.00;99.90
25628;DHT22;40915;50.826;4.356;2023-02-18T00:21:12;11.00;99.90
25628;DHT22;40915;50.826;4.356;2023-02-18T00:23:38;11.00;99.90
25628;DHT22;40915;50.826;4.356;2023-02-18T00:26:13;11.10;99.90
25628;DHT22;40915;50.826;4.356;2023-02-18T00:28:40;11.00;99.90
25628;DHT22;40915;50.826;4.356;2023-02-18T00:31:15;11.00;99.90
25628;DHT22;40915;50.826;4.356;2023-02-18T00:33:41;11.10;99.90
25628;DHT22;40915;50.826;4.356;2023-02-18T00:36:10;11.10;99.90
25628;DHT22;40915;50.826;4.356;2023-02-18T00:38:36;11.00;99.90
25628;DHT22;40915;50.826;4.356;2023-02-18T00:41:03;11.10;99.90
25628;DHT22;40915;50.826;4.356;2023-02-18T00:43:29;11.10;99.90
25628;DHT22;40915;50.826;4.356;2023-02-18T00:45:55;11.00;99.90
25628;DHT22;40915;50.826;4.356;2023-02-18T00:48:21;11.00;99.90
25628;DHT22;40915;50.826;4.356;2023-02-18T00:50:46;11.00;99.90
25628;DHT22;40915;50.826;4.356;2023-02-18T00:53:12;11.00;99.90
25628;DHT22;40915;50.826;4.356;2023-02-18T00:55:47;11.00;99.90
25628;DHT22;40915;50.826;4.356;2023-02-18T00:58:14;11.00;99.90
25628;DHT22;40915;50.826;4.356;2023-02-18T01:00:40;11.00;99.90
25628;DHT22;40915;50.826;4.356;2023-02-18T01:03:06;11.00;99.90
25628;DHT22;40915;50.826;4.356;2023-02-18T01:05:36;11.00;99.90
25628;DHT22;40915;50.826;4.356;2023-02-18T01:08:03;10.90;99.90
25628;DHT22;40915;50.826;4.356;2023-02-18T01:10:30;10.90;99.90
25628;DHT22;40915;50.826;4.356;2023-02-18T01:12:55;10.90;99.90
25628;DHT22;40915;50.826;4.356;2023-02-18T01:15:22;10.90;99.90
25628;DHT22;40915;50.826;4.356;2023-02-18T01:17:47;10.80;99.90
25628;DHT22;40915;50.826;4.356;2023-02-18T01:20:15;10.80;99.90
25628;DHT22;40915;50.826;4.356;2023-02-18T01:22:42;10.90;99.90
25628;DHT22;40915;50.826;4.356;2023-02-18T01:25:08;10.90;99.90
25628;DHT22;40915;50.826;4.356;2023-02-18T01:27:35;10.90;99.90
25628;DHT22;40915;50.826;4.356;2023-02-18T01:30:01;10.90;99.90
25628;DHT22;40915;50.826;4.356;2023-02-18T01:32:27;10.90;99.90
25628;DHT22;40915;50.826;4.356;2023-02-18T01:34:53;10.90;99.90
25628;DHT22;40915;50.826;4.356;2023-02-18T01:37:18;10.80;99.90
25628;DHT22;40915;50.826;4.356;2023-02-18T01:39:44;10.80;99.90
25628;DHT22;40915;50.826;4.356;2023-02-18T01:42:19;10.80;99.90
25628;DHT22;40915;50.826;4.356;2023-02-18T01:44:46;10.80;99.90
25628;DHT22;40915;50.826;4.356;2023-02-18T01:47:13;10.80;99.90
25628;DHT22;40915;50.826;4.356;2023-02-18T01:49:38;10.80;99.90
25628;DHT22;40915;50.826;4.356;2023-02-18T01:52:09;10.80;99.90
25628;DHT22;40915;50.826;4.356;2023-02-18T01:54:42;10.80;99.90
25628;DHT22;40915;50.826;4.356;2023-02-18T01:57:11;10.80;99.90
25628;DHT22;40915;50.826;4.356;2023-02-18T01:59:42;10.80;99.90
25628;DHT22;40915;50.826;4.356;2023-02-18T02:02:13;10.80;99.90
25628;DHT22;40915;50.826;4.356;2023-02-18T02:04:39;10.80;99.90
25628;DHT22;40915;50.826;4.356;2023-02-18T02:07:05;10.70;99.90
25628;DHT22;40915;50.826;4.356;2023-02-18T02:09:33;10.70;99.90
25628;DHT22;40915;50.826;4.356;2023-02-18T02:23:37;10.70;99.90
25628;DHT22;40915;50.826;4.356;2023-02-18T02:45:55;10.80;99.90
25628;DHT22;40915;50.826;4.356;2023-02-18T02:48:56;10.80;99.90
25628;DHT22;40915;50.826;4.356;2023-02-18T02:51:27;10.70;99.90
25628;DHT22;40915;50.826;4.356;2023-02-18T02:54:19;10.80;99.90
25628;DHT22;40915;50.826;4.356;2023-02-18T02:56:45;10.70;99.90
25628;DHT22;40915;50.826;4.356;2023-02-18T02:59:22;10.70;99.90
25628;DHT22;40915;50.826;4.356;2023-02-18T03:04:49;10.70;99.90
25628;DHT22;40915;50.826;4.356;2023-02-18T03:07:43;10.80;99.90
25628;DHT22;40915;50.826;4.356;2023-02-18T03:10:43;10.70;99.90
25628;DHT22;40915;50.826;4.356;2023-02-18T03:18:43;10.70;99.90
25628;DHT22;40915;50.826;4.356;2023-02-18T03:21:17;10.70;99.90
25628;DHT22;40915;50.826;4.356;2023-02-18T03:23:51;10.60;99.90
25628;DHT22;40915;50.826;4.356;2023-02-18T03:26:18;10.60;99.90
25628;DHT22;40915;50.826;4.356;2023-02-18T03:28:46;10.60;99.90
25628;DHT22;40915;50.826;4.356;2023-02-18T03:31:15;10.60;99.90
25628;DHT22;40915;50.826;4.356;2023-02-18T03:33:55;10.50;99.90
25628;DHT22;40915;50.826;4.356;2023-02-18T03:36:23;10.60;99.90
25628;DHT22;40915;50.826;4.356;2023-02-18T03:39:01;10.50;99.90
25628;DHT22;40915;50.826;4.356;2023-02-18T03:41:28;10.50;99.90
25628;DHT22;40915;50.826;4.356;2023-02-18T03:43:58;10.50;99.90
25628;DHT22;40915;50.826;4.356;2023-02-18T03:46:26;10.50;99.90
25628;DHT22;40915;50.826;4.356;2023-02-18T03:48:51;10.40;99.90
25628;DHT22;40915;50.826;4.356;2023-02-18T03:51:18;10.40;99.90
25628;DHT22;40915;50.826;4.356;2023-02-18T03:53:44;10.50;99.90
25628;DHT22;40915;50.826;4.356;2023-02-18T03:56:11;10.40;99.90
25628;DHT22;40915;50.826;4.356;2023-02-18T03:58:37;10.40;99.90
25628;DHT22;40915;50.826;4.356;2023-02-18T04:01:03;10.40;99.90
25628;DHT22;40915;50.826;4.356;2023-02-18T04:03:29;10.40;99.90
25628;DHT22;40915;50.826;4.356;2023-02-18T04:05:54;10.40;99.90
25628;DHT22;40915;50.826;4.356;2023-02-18T04:08:20;10.40;99.90
25628;DHT22;40915;50.826;4.356;2023-02-18T04:10:45;10.40;99.90
25628;DHT22;40915;50.826;4.356;2023-02-18T04:13:11;10.40;99.90
25628;DHT22;40915;50.826;4.356;2023-02-18T04:15:37;10.30;99.90
25628;DHT22;40915;50.826;4.356;2023-02-18T04:18:02;10.30;99.90
25628;DHT22;40915;50.826;4.356;2023-02-18T04:20:28;10.30;99.90
25628;DHT22;40915;50.826;4.356;2023-02-18T04:22:54;10.30;99.90
25628;DHT22;40915;50.826;4.356;2023-02-18T04:25:20;10.30;99.90
25628;DHT22;40915;50.826;4.356;2023-02-18T04:27:46;10.30;99.90
25628;DHT22;40915;50.826;4.356;2023-02-18T04:30:12;10.30;99.90
25628;DHT22;40915;50.826;4.356;2023-02-18T04:32:37;10.30;99.90
25628;DHT22;40915;50.826;4.356;2023-02-18T04:35:04;10.30;99.90
25628;DHT22;40915;50.826;4.356;2023-02-18T04:37:29;10.30;99.90
25628;DHT22;40915;50.826;4.356;2023-02-18T04:39:55;10.30;99.90
25628;DHT22;40915;50.826;4.356;2023-02-18T04:42:21;10.30;99.90
25628;DHT22;40915;50.826;4.356;2023-02-18T04:44:47;10.40;99.90
25628;DHT22;40915;50.826;4.356;2023-02-18T04:47:13;10.30;99.90
25628;DHT22;40915;50.826;4.356;2023-02-18T04:49:38;10.20;99.90
25628;DHT22;40915;50.826;4.356;2023-02-18T04:52:04;10.30;99.90
25628;DHT22;40915;50.826;4.356;2023-02-18T04:54:30;10.20;99.90
25628;DHT22;40915;50.826;4.356;2023-02-18T04:56:55;10.30;99.90
25628;DHT22;40915;50.826;4.356;2023-02-18T04:59:21;10.20;99.90
25628;DHT22;40915;50.826;4.356;2023-02-18T05:01:47;10.20;99.90
25628;DHT22;40915;50.826;4.356;2023-02-18T05:04:12;10.20;99.90
25628;DHT22;40915;50.826;4.356;2023-02-18T05:06:38;10.20;99.90
25628;DHT22;40915;50.826;4.356;2023-02-18T05:09:05;10.20;99.90
25628;DHT22;40915;50.826;4.356;2023-02-18T05:11:31;10.20;99.90
25628;DHT22;40915;50.826;4.356;2023-02-18T05:13:56;10.20;99.90
25628;DHT22;40915;50.826;4.356;2023-02-18T05:16:22;10.10;99.90
25628;DHT22;40915;50.826;4.356;2023-02-18T05:18:47;10.10;99.90
25628;DHT22;40915;50.826;4.356;2023-02-18T05:21:13;10.10;99.90
25628;DHT22;40915;50.826;4.356;2023-02-18T05:23:38;10.10;99.90
25628;DHT22;40915;50.826;4.356;2023-02-18T05:26:04;10.10;99.90
25628;DHT22;40915;50.826;4.356;2023-02-18T05:28:30;10.10;99.90
25628;DHT22;40915;50.826;4.356;2023-02-18T05:30:55;10.10;99.90
25628;DHT22;40915;50.826;4.356;2023-02-18T05:33:21;10.10;99.90
25628;DHT22;40915;50.826;4.356;2023-02-18T05:35:47;10.10;99.90
25628;DHT22;40915;50.826;4.356;2023-02-18T05:38:13;10.00;99.90
25628;DHT22;40915;50.826;4.356;2023-02-18T05:40:39;10.10;99.90
25628;DHT22;40915;50.826;4.356;2023-02-18T05:43:05;10.00;99.90
25628;DHT22;40915;50.826;4.356;2023-02-18T05:45:31;10.00;99.90
25628;DHT22;40915;50.826;4.356;2023-02-18T05:47:56;10.00;99.90
25628;DHT22;40915;50.826;4.356;2023-02-18T05:50:22;10.00;99.90
25628;DHT22;40915;50.826;4.356;2023-02-18T05:52:48;10.00;99.90
25628;DHT22;40915;50.826;4.356;2023-02-18T05:55:13;10.00;99.90
25628;DHT22;40915;50.826;4.356;2023-02-18T05:57:39;10.00;99.90
25628;DHT22;40915;50.826;4.356;2023-02-18T06:00:06;9.90;99.90
25628;DHT22;40915;50.826;4.356;2023-02-18T06:02:33;9.90;99.90
25628;DHT22;40915;50.826;4.356;2023-02-18T06:04:59;10.00;99.90
25628;DHT22;40915;50.826;4.356;2023-02-18T06:07:24;10.00;99.90
25628;DHT22;40915;50.826;4.356;2023-02-18T06:09:50;10.00;99.90
25628;DHT22;40915;50.826;4.356;2023-02-18T06:12:16;10.10;99.90
25628;DHT22;40915;50.826;4.356;2023-02-18T06:14:42;10.10;99.90
25628;DHT22;40915;50.826;4.356;2023-02-18T06:17:08;10.10;99.90
25628;DHT22;40915;50.826;4.356;2023-02-18T06:19:35;10.10;99.90
25628;DHT22;40915;50.826;4.356;2023-02-18T06:22:01;10.10;99.90
25628;DHT22;40915;50.826;4.356;2023-02-18T06:24:27;10.10;99.90
25628;DHT22;40915;50.826;4.356;2023-02-18T06:26:52;10.00;99.90
25628;DHT22;40915;50.826;4.356;2023-02-18T06:29:18;10.10;99.90
25628;DHT22;40915;50.826;4.356;2023-02-18T06:31:45;10.10;99.90
25628;DHT22;40915;50.826;4.356;2023-02-18T06:34:10;10.10;99.90
25628;DHT22;40915;50.826;4.356;2023-02-18T06:36:37;10.10;99.90
25628;DHT22;40915;50.826;4.356;2023-02-18T06:39:05;10.10;99.90
25628;DHT22;40915;50.826;4.356;2023-02-18T06:41:31;10.10;99.90
25628;DHT22;40915;50.826;4.356;2023-02-18T06:43:58;10.10;99.90
25628;DHT22;40915;50.826;4.356;2023-02-18T06:46:24;10.10;99.90
25628;DHT22;40915;50.826;4.356;2023-02-18T06:48:50;10.10;99.90
25628;DHT22;40915;50.826;4.356;2023-02-18T06:51:15;10.10;99.90
25628;DHT22;40915;50.826;4.356;2023-02-18T06:53:42;10.10;99.90
25628;DHT22;40915;50.826;4.356;2023-02-18T06:56:08;10.10;99.90
25628;DHT22;40915;50.826;4.356;2023-02-18T06:58:34;10.10;99.90
25628;DHT22;40915;50.826;4.356;2023-02-18T07:00:59;10.10;99.90
25628;DHT22;40915;50.826;4.356;2023-02-18T07:03:25;10.10;99.90
25628;DHT22;40915;50.826;4.356;2023-02-18T07:05:52;10.10;99.90
25628;DHT22;40915;50.826;4.356;2023-02-18T07:08:19;10.10;99.90
25628;DHT22;40915;50.826;4.356;2023-02-18T07:10:45;10.10;99.90
25628;DHT22;40915;50.826;4.356;2023-02-18T07:13:11;10.00;99.90
25628;DHT22;40915;50.826;4.356;2023-02-18T07:15:37;10.10;99.90
25628;DHT22;40915;50.826;4.356;2023-02-18T07:18:03;10.10;99.90
25628;DHT22;40915;50.826;4.356;2023-02-18T07:20:29;10.10;99.90
25628;DHT22;40915;50.826;4.356;2023-02-18T07:22:55;10.10;99.90
25628;DHT22;40915;50.826;4.356;2023-02-18T07:25:21;10.00;99.90
25628;DHT22;40915;50.826;4.356;2023-02-18T07:27:47;10.10;99.90
25628;DHT22;40915;50.826;4.356;2023-02-18T07:30:13;10.10;99.90
25628;DHT22;40915;50.826;4.356;2023-02-18T07:32:39;10.10;99.90
25628;DHT22;40915;50.826;4.356;2023-02-18T07:35:06;10.10;99.90
25628;DHT22;40915;50.826;4.356;2023-02-18T07:37:32;10.10;99.90
25628;DHT22;40915;50.826;4.356;2023-02-18T07:39:57;10.00;99.90
25628;DHT22;40915;50.826;4.356;2023-02-18T07:42:23;10.00;99.90
25628;DHT22;40915;50.826;4.356;2023-02-18T07:44:49;10.10;99.90
25628;DHT22;40915;50.826;4.356;2023-02-18T07:47:16;10.10;99.90
25628;DHT22;40915;50.826;4.356;2023-02-18T07:49:44;10.10;99.90
25628;DHT22;40915;50.826;4.356;2023-02-18T07:52:10;10.10;99.90
25628;DHT22;40915;50.826;4.356;2023-02-18T07:54:36;10.10;99.90
25628;DHT22;40915;50.826;4.356;2023-02-18T07:57:01;10.20;99.90
25628;DHT22;40915;50.826;4.356;2023-02-18T07:59:29;10.20;99.90
25628;DHT22;40915;50.826;4.356;2023-02-18T08:01:55;10.20;99.90
25628;DHT22;40915;50.826;4.356;2023-02-18T08:04:20;10.30;99.90
25628;DHT22;40915;50.826;4.356;2023-02-18T08:06:47;10.30;99.90
25628;DHT22;40915;50.826;4.356;2023-02-18T08:09:15;10.30;99.90
25628;DHT22;40915;50.826;4.356;2023-02-18T08:11:41;10.30;99.90
25628;DHT22;40915;50.826;4.356;2023-02-18T08:14:10;10.30;99.90
25628;DHT22;40915;50.826;4.356;2023-02-18T08:16:38;10.40;99.90
25628;DHT22;40915;50.826;4.356;2023-02-18T08:19:07;10.40;99.90
25628;DHT22;40915;50.826;4.356;2023-02-18T08:21:34;10.40;99.90
25628;DHT22;40915;50.826;4.356;2023-02-18T08:24:01;10.50;99.90
25628;DHT22;40915;50.826;4.356;2023-02-18T08:26:26;10.50;99.90
25628;DHT22;40915;50.826;4.356;2023-02-18T08:28:52;10.40;99.90
25628;DHT22;40915;50.826;4.356;2023-02-18T08:31:26;10.50;99.90
25628;DHT22;40915;50.826;4.356;2023-02-18T08:33:54;10.60;99.90
25628;DHT22;40915;50.826;4.356;2023-02-18T08:36:21;10.50;99.90
25628;DHT22;40915;50.826;4.356;2023-02-18T08:38:47;10.50;99.90
25628;DHT22;40915;50.826;4.356;2023-02-18T08:41:13;10.50;99.90
25628;DHT22;40915;50.826;4.356;2023-02-18T08:43:40;10.60;99.90
25628;DHT22;40915;50.826;4.356;2023-02-18T08:46:06;10.60;99.90
25628;DHT22;40915;50.826;4.356;2023-02-18T08:48:32;10.60;99.90
25628;DHT22;40915;50.826;4.356;2023-02-18T08:50:58;10.60;99.90
25628;DHT22;40915;50.826;4.356;2023-02-18T08:53:26;10.60;99.90
25628;DHT22;40915;50.826;4.356;2023-02-18T08:55:52;10.60;99.90
25628;DHT22;40915;50.826;4.356;2023-02-18T08:58:18;10.70;99.90
25628;DHT22;40915;50.826;4.356;2023-02-18T09:00:45;10.70;99.90
25628;DHT22;40915;50.826;4.356;2023-02-18T09:03:14;10.70;99.90
25628;DHT22;40915;50.826;4.356;2023-02-18T09:05:40;10.70;99.90
25628;DHT22;40915;50.826;4.356;2023-02-18T09:08:06;10.70;99.90
25628;DHT22;40915;50.826;4.356;2023-02-18T09:10:31;10.70;99.90
25628;DHT22;40915;50.826;4.356;2023-02-18T09:12:57;10.70;99.90
25628;DHT22;40915;50.826;4.356;2023-02-18T09:15:23;10.80;99.90
25628;DHT22;40915;50.826;4.356;2023-02-18T09:17:48;10.90;99.90
25628;DHT22;40915;50.826;4.356;2023-02-18T09:20:14;10.90;99.90
25628;DHT22;40915;50.826;4.356;2023-02-18T09:22:39;10.90;99.90
25628;DHT22;40915;50.826;4.356;2023-02-18T09:25:06;10.90;99.90
25628;DHT22;40915;50.826;4.356;2023-02-18T09:27:31;10.90;99.90
25628;DHT22;40915;50.826;4.356;2023-02-18T09:29:57;10.90;99.90
25628;DHT22;40915;50.826;4.356;2023-02-18T09:32:23;10.90;99.90
25628;DHT22;40915;50.826;4.356;2023-02-18T09:34:49;10.90;99.90
25628;DHT22;40915;50.826;4.356;2023-02-18T09:37:14;11.00;99.90
25628;DHT22;40915;50.826;4.356;2023-02-18T09:39:40;11.00;99.90
25628;DHT22;40915;50.826;4.356;2023-02-18T09:42:11;11.00;99.90
25628;DHT22;40915;50.826;4.356;2023-02-18T09:44:41;11.00;99.90
25628;DHT22;40915;50.826;4.356;2023-02-18T09:53:05;11.00;99.90
25628;DHT22;40915;50.826;4.356;2023-02-18T09:55:35;11.00;99.90
25628;DHT22;40915;50.826;4.356;2023-02-18T09:58:18;11.00;99.90
25628;DHT22;40915;50.826;4.356;2023-02-18T10:00:50;11.00;99.90
25628;DHT22;40915;50.826;4.356;2023-02-18T10:03:17;11.00;99.90
25628;DHT22;40915;50.826;4.356;2023-02-18T10:06:03;11.10;99.90
25628;DHT22;40915;50.826;4.356;2023-02-18T10:08:37;11.10;99.90
25628;DHT22;40915;50.826;4.356;2023-02-18T10:11:18;11.10;99.90
25628;DHT22;40915;50.826;4.356;2023-02-18T10:13:49;11.10;99.90
25628;DHT22;40915;50.826;4.356;2023-02-18T10:16:17;11.10;99.90
25628;DHT22;40915;50.826;4.356;2023-02-18T10:18:48;11.10;99.90
25628;DHT22;40915;50.826;4.356;2023-02-18T10:21:23;11.20;99.90
25628;DHT22;40915;50.826;4.356;2023-02-18T10:23:59;11.20;99.90
25628;DHT22;40915;50.826;4.356;2023-02-18T10:26:28;11.20;99.90
25628;DHT22;40915;50.826;4.356;2023-02-18T10:28:54;11.20;99.90
25628;DHT22;40915;50.826;4.356;2023-02-18T10:31:27;11.30;99.90
25628;DHT22;40915;50.826;4.356;2023-02-18T10:34:06;11.30;99.90
25628;DHT22;40915;50.826;4.356;2023-02-18T10:36:50;11.30;99.90
25628;DHT22;40915;50.826;4.356;2023-02-18T10:39:58;11.30;99.90
25628;DHT22;40915;50.826;4.356;2023-02-18T10:42:48;11.30;99.90
25628;DHT22;40915;50.826;4.356;2023-02-18T10:45:32;11.20;99.90
25628;DHT22;40915;50.826;4.356;2023-02-18T10:48:24;11.20;99.90
25628;DHT22;40915;50.826;4.356;2023-02-18T10:50:51;11.30;99.90
25628;DHT22;40915;50.826;4.356;2023-02-18T10:56:02;11.20;99.90
25628;DHT22;40915;50.826;4.356;2023-02-18T10:58:35;11.20;99.90
25628;DHT22;40915;50.826;4.356;2023-02-18T11:01:05;11.30;99.90
25628;DHT22;40915;50.826;4.356;2023-02-18T11:03:50;11.30;99.90
25628;DHT22;40915;50.826;4.356;2023-02-18T11:06:42;11.30;99.90
25628;DHT22;40915;50.826;4.356;2023-02-18T11:12:12;11.40;99.90
25628;DHT22;40915;50.826;4.356;2023-02-18T11:14:44;11.40;99.90
25628;DHT22;40915;50.826;4.356;2023-02-18T11:17:31;11.50;99.90
25628;DHT22;40915;50.826;4.356;2023-02-18T11:20:04;11.50;99.90
25628;DHT22;40915;50.826;4.356;2023-02-18T11:22:43;11.50;99.90
25628;DHT22;40915;50.826;4.356;2023-02-18T11:25:20;11.60;99.90
25628;DHT22;40915;50.826;4.356;2023-02-18T11:27:58;11.60;99.90
25628;DHT22;40915;50.826;4.356;2023-02-18T11:30:45;11.60;99.90
25628;DHT22;40915;50.826;4.356;2023-02-18T11:33:23;11.50;99.90
25628;DHT22;40915;50.826;4.356;2023-02-18T11:35:57;11.60;99.90
25628;DHT22;40915;50.826;4.356;2023-02-18T11:38:53;11.60;99.90
25628;DHT22;40915;50.826;4.356;2023-02-18T11:41:28;11.60;99.90
25628;DHT22;40915;50.826;4.356;2023-02-18T11:43:58;11.60;99.90
25628;DHT22;40915;50.826;4.356;2023-02-18T11:46:25;11.60;99.90
25628;DHT22;40915;50.826;4.356;2023-02-18T11:48:52;11.60;99.90
25628;DHT22;40915;50.826;4.356;2023-02-18T11:51:34;11.70;99.90
25628;DHT22;40915;50.826;4.356;2023-02-18T11:54:21;11.70;99.90
25628;DHT22;40915;50.826;4.356;2023-02-18T11:57:02;11.80;99.90
25628;DHT22;40915;50.826;4.356;2023-02-18T11:59:31;11.80;99.90
25628;DHT22;40915;50.826;4.356;2023-02-18T12:05:21;11.80;99.90
25628;DHT22;40915;50.826;4.356;2023-02-18T12:07:51;11.80;99.90
25628;DHT22;40915;50.826;4.356;2023-02-18T12:13:04;11.80;99.90
25628;DHT22;40915;50.826;4.356;2023-02-18T12:18:26;11.80;99.90
25628;DHT22;40915;50.826;4.356;2023-02-18T12:21:20;11.80;99.90
25628;DHT22;40915;50.826;4.356;2023-02-18T12:34:56;11.90;99.90
25628;DHT22;40915;50.826;4.356;2023-02-18T12:37:52;11.90;99.90
25628;DHT22;40915;50.826;4.356;2023-02-18T12:46:16;12.00;99.90
25628;DHT22;40915;50.826;4.356;2023-02-18T12:51:38;12.00;99.90
25628;DHT22;40915;50.826;4.356;2023-02-18T12:57:16;12.00;99.90
25628;DHT22;40915;50.826;4.356;2023-02-18T13:05:56;12.00;99.90
25628;DHT22;40915;50.826;4.356;2023-02-18T13:16:49;11.80;99.90
25628;DHT22;40915;50.826;4.356;2023-02-18T13:19:32;11.70;99.90
25628;DHT22;40915;50.826;4.356;2023-02-18T13:22:01;11.60;99.90
25628;DHT22;40915;50.826;4.356;2023-02-18T13:24:35;11.50;99.90
25628;DHT22;40915;50.826;4.356;2023-02-18T13:27:21;11.40;99.90
25628;DHT22;40915;50.826;4.356;2023-02-18T13:35:50;11.20;99.90
25628;DHT22;40915;50.826;4.356;2023-02-18T13:40:49;11.20;99.90
25628;DHT22;40915;50.826;4.356;2023-02-18T13:43:31;11.20;99.90
25628;DHT22;40915;50.826;4.356;2023-02-18T13:51:05;11.10;99.90
25628;DHT22;40915;50.826;4.356;2023-02-18T13:53:35;11.10;99.90
25628;DHT22;40915;50.826;4.356;2023-02-18T13:58:49;11.00;99.90
25628;DHT22;40915;50.826;4.356;2023-02-18T14:09:58;11.00;99.90
25628;DHT22;40915;50.826;4.356;2023-02-18T14:12:34;11.00;99.90
25628;DHT22;40915;50.826;4.356;2023-02-18T14:20:45;11.00;99.90
25628;DHT22;40915;50.826;4.356;2023-02-18T14:26:04;10.90;99.90
25628;DHT22;40915;50.826;4.356;2023-02-18T14:33:39;10.90;99.90
25628;DHT22;40915;50.826;4.356;2023-02-18T14:36:24;10.90;99.90
25628;DHT22;40915;50.826;4.356;2023-02-18T14:41:47;11.00;99.90
25628;DHT22;40915;50.826;4.356;2023-02-18T14:50:14;11.10;99.90
25628;DHT22;40915;50.826;4.356;2023-02-18T14:52:52;11.10;99.90
25628;DHT22;40915;50.826;4.356;2023-02-18T14:55:33;11.10;99.90
25628;DHT22;40915;50.826;4.356;2023-02-18T14:58:02;11.20;99.90
25628;DHT22;40915;50.826;4.356;2023-02-18T15:00:31;11.10;99.90
25628;DHT22;40915;50.826;4.356;2023-02-18T15:03:00;11.20;99.90
25628;DHT22;40915;50.826;4.356;2023-02-18T15:05:31;11.20;99.90
25628;DHT22;40915;50.826;4.356;2023-02-18T15:08:02;11.20;99.90
25628;DHT22;40915;50.826;4.356;2023-02-18T15:10:40;11.20;99.90
25628;DHT22;40915;50.826;4.356;2023-02-18T15:13:28;11.30;99.90
25628;DHT22;40915;50.826;4.356;2023-02-18T15:15:58;11.20;99.90
25628;DHT22;40915;50.826;4.356;2023-02-18T15:18:39;11.20;99.90
25628;DHT22;40915;50.826;4.356;2023-02-18T15:21:54;11.20;99.90
25628;DHT22;40915;50.826;4.356;2023-02-18T15:24:38;11.20;99.90
25628;DHT22;40915;50.826;4.356;2023-02-18T15:26:47;11.20;99.90
25628;DHT22;40915;50.826;4.356;2023-02-18T15:29:22;11.20;99.90
25628;DHT22;40915;50.826;4.356;2023-02-18T15:31:53;11.20;99.90
25628;DHT22;40915;50.826;4.356;2023-02-18T15:36:52;11.20;99.90
25628;DHT22;40915;50.826;4.356;2023-02-18T15:39:18;11.20;99.90
25628;DHT22;40915;50.826;4.356;2023-02-18T15:41:58;11.20;99.90
25628;DHT22;40915;50.826;4.356;2023-02-18T15:44:31;11.10;99.90
25628;DHT22;40915;50.826;4.356;2023-02-18T15:47:04;11.10;99.90
25628;DHT22;40915;50.826;4.356;2023-02-18T15:49:32;11.20;99.90
25628;DHT22;40915;50.826;4.356;2023-02-18T15:51:59;11.20;99.90
25628;DHT22;40915;50.826;4.356;2023-02-18T15:54:27;11.20;99.90
25628;DHT22;40915;50.826;4.356;2023-02-18T15:56:55;11.20;99.90
25628;DHT22;40915;50.826;4.356;2023-02-18T16:04:33;11.10;99.90
25628;DHT22;40915;50.826;4.356;2023-02-18T16:07:15;11.20;99.90
25628;DHT22;40915;50.826;4.356;2023-02-18T16:09:41;11.20;99.90
25628;DHT22;40915;50.826;4.356;2023-02-18T16:12:25;11.10;99.90
25628;DHT22;40915;50.826;4.356;2023-02-18T16:14:55;11.20;99.90
25628;DHT22;40915;50.826;4.356;2023-02-18T16:17:25;11.20;99.90
25628;DHT22;40915;50.826;4.356;2023-02-18T16:20:00;11.20;99.90
25628;DHT22;40915;50.826;4.356;2023-02-18T16:25:00;11.20;99.90
25628;DHT22;40915;50.826;4.356;2023-02-18T16:27:34;11.20;99.90
25628;DHT22;40915;50.826;4.356;2023-02-18T16:30:15;11.20;99.90
25628;DHT22;40915;50.826;4.356;2023-02-18T16:32:41;11.20;99.90
25628;DHT22;40915;50.826;4.356;2023-02-18T16:35:07;11.20;99.90
25628;DHT22;40915;50.826;4.356;2023-02-18T16:37:33;11.30;99.90
25628;DHT22;40915;50.826;4.356;2023-02-18T16:40:34;11.30;99.90
25628;DHT22;40915;50.826;4.356;2023-02-18T16:43:05;11.20;99.90
25628;DHT22;40915;50.826;4.356;2023-02-18T16:45:38;11.20;99.90
25628;DHT22;40915;50.826;4.356;2023-02-18T16:48:05;11.20;99.90
25628;DHT22;40915;50.826;4.356;2023-02-18T16:50:32;11.20;99.90
25628;DHT22;40915;50.826;4.356;2023-02-18T16:52:59;11.20;99.90
25628;DHT22;40915;50.826;4.356;2023-02-18T16:55:27;11.20;99.90
25628;DHT22;40915;50.826;4.356;2023-02-18T16:57:54;11.10;99.90
25628;DHT22;40915;50.826;4.356;2023-02-18T17:00:20;11.20;99.90
25628;DHT22;40915;50.826;4.356;2023-02-18T17:02:52;11.10;99.90
25628;DHT22;40915;50.826;4.356;2023-02-18T17:05:25;11.20;99.90
25628;DHT22;40915;50.826;4.356;2023-02-18T17:07:50;11.10;99.90
25628;DHT22;40915;50.826;4.356;2023-02-18T17:10:16;11.20;99.90
25628;DHT22;40915;50.826;4.356;2023-02-18T17:12:42;11.20;99.90
25628;DHT22;40915;50.826;4.356;2023-02-18T17:15:14;11.20;99.90
25628;DHT22;40915;50.826;4.356;2023-02-18T17:17:43;11.20;99.90
25628;DHT22;40915;50.826;4.356;2023-02-18T17:20:09;11.20;99.90
25628;DHT22;40915;50.826;4.356;2023-02-18T17:22:39;11.10;99.90
25628;DHT22;40915;50.826;4.356;2023-02-18T17:25:11;11.20;99.90
25628;DHT22;40915;50.826;4.356;2023-02-18T17:27:38;11.20;99.90
25628;DHT22;40915;50.826;4.356;2023-02-18T17:30:04;11.20;99.90
25628;DHT22;40915;50.826;4.356;2023-02-18T17:32:32;11.20;99.90
25628;DHT22;40915;50.826;4.356;2023-02-18T17:34:58;11.20;99.90
25628;DHT22;40915;50.826;4.356;2023-02-18T17:37:25;11.20;99.90
25628;DHT22;40915;50.826;4.356;2023-02-18T17:39:51;11.10;99.90
25628;DHT22;40915;50.826;4.356;2023-02-18T17:42:17;11.20;99.90
25628;DHT22;40915;50.826;4.356;2023-02-18T17:44:42;11.20;99.90
25628;DHT22;40915;50.826;4.356;2023-02-18T17:47:08;11.10;99.90
25628;DHT22;40915;50.826;4.356;2023-02-18T17:49:33;11.20;99.90
25628;DHT22;40915;50.826;4.356;2023-02-18T17:51:59;11.10;99.90
25628;DHT22;40915;50.826;4.356;2023-02-18T17:54:26;11.10;99.90
25628;DHT22;40915;50.826;4.356;2023-02-18T17:56:52;11.10;99.90
25628;DHT22;40915;50.826;4.356;2023-02-18T17:59:20;11.00;99.90
25628;DHT22;40915;50.826;4.356;2023-02-18T18:01:45;11.10;99.90
25628;DHT22;40915;50.826;4.356;2023-02-18T18:04:16;11.00;99.90
25628;DHT22;40915;50.826;4.356;2023-02-18T18:06:42;11.10;99.90
25628;DHT22;40915;50.826;4.356;2023-02-18T18:09:08;11.10;99.90
25628;DHT22;40915;50.826;4.356;2023-02-18T18:11:34;11.10;99.90
25628;DHT22;40915;50.826;4.356;2023-02-18T18:14:00;11.00;99.90
25628;DHT22;40915;50.826;4.356;2023-02-18T18:16:26;10.90;99.90
25628;DHT22;40915;50.826;4.356;2023-02-18T18:18:51;10.90;99.90
25628;DHT22;40915;50.826;4.356;2023-02-18T18:21:23;10.80;99.90